sensor_id;sensor_type;location;lat;lon;timestamp;temperature;humidity
82039;DHT22;71610;42.628;23.378;2023-10-08T00:02:25;22.30;42.70
82039;DHT22;71610;42.628;23.378;2023-10-08T00:04:54;22.30;42.60
82039;DHT22;71610;42.628;23.378;2023-10-08T00:07:25;22.30;42.60
82039;DHT22;71610;42.628;23.378;2023-10-08T00:09:51;22.20;42.60
82039;DHT22;71610;42.628;23.378;2023-10-08T00:12:19;22.30;42.60
82039;DHT22;71610;42.628;23.378;2023-10-08T00:14:45;22.20;42.50
82039;DHT22;71610;42.628;23.378;2023-10-08T00:17:15;22.30;42.50
82039;DHT22;71610;42.628;23.378;2023-10-08T00:19:42;22.20;42.40
82039;DHT22;71610;42.628;23.378;2023-10-08T00:22:11;22.20;42.40
82039;DHT22;71610;42.628;23.378;2023-10-08T00:24:39;22.20;42.40
82039;DHT22;71610;42.628;23.378;2023-10-08T00:27:08;22.20;42.40
82039;DHT22;71610;42.628;23.378;2023-10-08T00:29:34;22.20;42.40
82039;DHT22;71610;42.628;23.378;2023-10-08T00:32:00;22.20;42.40
82039;DHT22;71610;42.628;23.378;2023-10-08T00:34:40;22.20;42.40
82039;DHT22;71610;42.628;23.378;2023-10-08T00:37:11;22.20;42.40
82039;DHT22;71610;42.628;23.378;2023-10-08T00:39:40;22.20;42.30
82039;DHT22;71610;42.628;23.378;2023-10-08T00:42:06;22.20;42.30
82039;DHT22;71610;42.628;23.378;2023-10-08T00:44:38;22.20;42.40
82039;DHT22;71610;42.628;23.378;2023-10-08T00:47:19;22.20;42.30
82039;DHT22;71610;42.628;23.378;2023-10-08T00:49:51;22.20;42.30
82039;DHT22;71610;42.628;23.378;2023-10-08T00:52:30;22.20;42.30
82039;DHT22;71610;42.628;23.378;2023-10-08T00:55:02;22.20;42.30
82039;DHT22;71610;42.628;23.378;2023-10-08T00:57:29;22.20;42.30
82039;DHT22;71610;42.628;23.378;2023-10-08T00:59:56;22.20;42.20
82039;DHT22;71610;42.628;23.378;2023-10-08T01:02:30;22.20;42.20
82039;DHT22;71610;42.628;23.378;2023-10-08T01:05:11;22.20;42.10
82039;DHT22;71610;42.628;23.378;2023-10-08T01:07:39;22.20;42.20
82039;DHT22;71610;42.628;23.378;2023-10-08T01:10:10;22.20;42.20
82039;DHT22;71610;42.628;23.378;2023-10-08T01:12:36;22.20;42.20
82039;DHT22;71610;42.628;23.378;2023-10-08T01:15:09;22.20;42.10
82039;DHT22;71610;42.628;23.378;2023-10-08T01:17:49;22.20;42.10
82039;DHT22;71610;42.628;23.378;2023-10-08T01:20:25;22.10;42.10
82039;DHT22;71610;42.628;23.378;2023-10-08T01:23:09;22.20;42.10
82039;DHT22;71610;42.628;23.378;2023-10-08T01:25:42;22.20;42.10
82039;DHT22;71610;42.628;23.378;2023-10-08T01:28:09;22.20;42.10
82039;DHT22;71610;42.628;23.378;2023-10-08T01:30:42;22.20;42.10
82039;DHT22;71610;42.628;23.378;2023-10-08T01:33:08;22.20;42.10
82039;DHT22;71610;42.628;23.378;2023-10-08T01:35:40;22.20;42.00
82039;DHT22;71610;42.628;23.378;2023-10-08T01:38:06;22.20;42.10
82039;DHT22;71610;42.628;23.378;2023-10-08T01:40:33;22.10;42.00
82039;DHT22;71610;42.628;23.378;2023-10-08T01:42:59;22.20;42.10
82039;DHT22;71610;42.628;23.378;2023-10-08T01:45:29;22.10;42.00
82039;DHT22;71610;42.628;23.378;2023-10-08T01:47:56;22.10;41.90
82039;DHT22;71610;42.628;23.378;2023-10-08T01:50:22;22.10;41.90
82039;DHT22;71610;42.628;23.378;2023-10-08T01:52:50;22.20;42.00
82039;DHT22;71610;42.628;23.378;2023-10-08T01:55:19;22.10;41.80
82039;DHT22;71610;42.628;23.378;2023-10-08T01:57:49;22.20;41.90
82039;DHT22;71610;42.628;23.378;2023-10-08T02:00:17;22.20;42.00
82039;DHT22;71610;42.628;23.378;2023-10-08T02:02:46;22.10;41.90
82039;DHT22;71610;42.628;23.378;2023-10-08T02:05:12;22.10;41.90
82039;DHT22;71610;42.628;23.378;2023-10-08T02:07:41;22.20;41.90
82039;DHT22;71610;42.628;23.378;2023-10-08T02:10:07;22.10;41.80
82039;DHT22;71610;42.628;23.378;2023-10-08T02:12:38;22.10;41.80
82039;DHT22;71610;42.628;23.378;2023-10-08T02:15:04;22.10;41.80
82039;DHT22;71610;42.628;23.378;2023-10-08T02:17:32;22.10;41.80
82039;DHT22;71610;42.628;23.378;2023-10-08T02:19:58;22.10;42.90
82039;DHT22;71610;42.628;23.378;2023-10-08T02:22:23;22.10;41.80
82039;DHT22;71610;42.628;23.378;2023-10-08T02:24:49;22.10;42.90
82039;DHT22;71610;42.628;23.378;2023-10-08T02:27:16;22.10;41.70
82039;DHT22;71610;42.628;23.378;2023-10-08T02:29:42;22.10;41.80
82039;DHT22;71610;42.628;23.378;2023-10-08T02:32:08;22.10;41.80
82039;DHT22;71610;42.628;23.378;2023-10-08T02:34:34;22.10;41.80
82039;DHT22;71610;42.628;23.378;2023-10-08T02:37:01;22.10;41.70
82039;DHT22;71610;42.628;23.378;2023-10-08T02:39:29;22.10;41.70
82039;DHT22;71610;42.628;23.378;2023-10-08T02:41:57;22.10;41.70
82039;DHT22;71610;42.628;23.378;2023-10-08T02:44:25;22.10;41.70
82039;DHT22;71610;42.628;23.378;2023-10-08T02:46:51;22.10;41.70
82039;DHT22;71610;42.628;23.378;2023-10-08T02:49:21;22.10;41.70
82039;DHT22;71610;42.628;23.378;2023-10-08T02:51:49;22.10;41.70
82039;DHT22;71610;42.628;23.378;2023-10-08T02:54:16;22.10;41.70
82039;DHT22;71610;42.628;23.378;2023-10-08T02:56:44;22.10;41.70
82039;DHT22;71610;42.628;23.378;2023-10-08T02:59:12;22.10;41.70
82039;DHT22;71610;42.628;23.378;2023-10-08T03:01:38;22.10;41.70
82039;DHT22;71610;42.628;23.378;2023-10-08T03:04:07;22.10;41.70
82039;DHT22;71610;42.628;23.378;2023-10-08T03:06:43;22.10;41.70
82039;DHT22;71610;42.628;23.378;2023-10-08T03:09:08;22.10;41.60
82039;DHT22;71610;42.628;23.378;2023-10-08T03:11:34;22.10;41.60
82039;DHT22;71610;42.628;23.378;2023-10-08T03:14:03;22.10;41.60
82039;DHT22;71610;42.628;23.378;2023-10-08T03:16:28;22.10;41.60
82039;DHT22;71610;42.628;23.378;2023-10-08T03:19:01;22.10;41.60
82039;DHT22;71610;42.628;23.378;2023-10-08T03:21:26;22.10;41.60
82039;DHT22;71610;42.628;23.378;2023-10-08T03:24:04;22.00;41.60
82039;DHT22;71610;42.628;23.378;2023-10-08T03:26:38;22.00;41.60
82039;DHT22;71610;42.628;23.378;2023-10-08T03:29:10;22.00;41.60
82039;DHT22;71610;42.628;23.378;2023-10-08T03:31:43;22.00;41.60
82039;DHT22;71610;42.628;23.378;2023-10-08T03:34:18;22.10;41.70
82039;DHT22;71610;42.628;23.378;2023-10-08T03:36:45;22.10;41.70
82039;DHT22;71610;42.628;23.378;2023-10-08T03:39:12;22.00;41.60
82039;DHT22;71610;42.628;23.378;2023-10-08T03:41:41;22.00;41.60
82039;DHT22;71610;42.628;23.378;2023-10-08T03:44:08;22.00;41.70
82039;DHT22;71610;42.628;23.378;2023-10-08T03:46:40;22.00;41.60
82039;DHT22;71610;42.628;23.378;2023-10-08T03:49:09;22.00;41.60
82039;DHT22;71610;42.628;23.378;2023-10-08T03:51:44;22.00;41.60
82039;DHT22;71610;42.628;23.378;2023-10-08T03:54:10;22.00;41.60
82039;DHT22;71610;42.628;23.378;2023-10-08T03:56:45;22.00;41.60
82039;DHT22;71610;42.628;23.378;2023-10-08T03:59:20;22.00;41.60
82039;DHT22;71610;42.628;23.378;2023-10-08T04:01:55;22.00;41.50
82039;DHT22;71610;42.628;23.378;2023-10-08T04:04:27;22.00;41.60
82039;DHT22;71610;42.628;23.378;2023-10-08T04:07:18;22.00;41.60
82039;DHT22;71610;42.628;23.378;2023-10-08T04:10:00;22.00;41.60
82039;DHT22;71610;42.628;23.378;2023-10-08T04:12:38;22.00;41.60
82039;DHT22;71610;42.628;23.378;2023-10-08T04:15:09;22.00;41.60
82039;DHT22;71610;42.628;23.378;2023-10-08T04:17:38;22.00;41.60
82039;DHT22;71610;42.628;23.378;2023-10-08T04:20:14;22.00;41.60
82039;DHT22;71610;42.628;23.378;2023-10-08T04:22:59;22.00;41.50
82039;DHT22;71610;42.628;23.378;2023-10-08T04:25:28;22.00;41.60
82039;DHT22;71610;42.628;23.378;2023-10-08T04:27:55;22.00;41.60
82039;DHT22;71610;42.628;23.378;2023-10-08T04:30:31;22.00;41.60
82039;DHT22;71610;42.628;23.378;2023-10-08T04:35:35;22.00;41.60
82039;DHT22;71610;42.628;23.378;2023-10-08T04:38:20;22.00;41.60
82039;DHT22;71610;42.628;23.378;2023-10-08T04:40:50;21.90;41.50
82039;DHT22;71610;42.628;23.378;2023-10-08T04:43:23;21.90;41.50
82039;DHT22;71610;42.628;23.378;2023-10-08T04:45:53;21.90;41.60
82039;DHT22;71610;42.628;23.378;2023-10-08T04:48:19;22.00;41.60
82039;DHT22;71610;42.628;23.378;2023-10-08T04:50:47;22.00;41.60
82039;DHT22;71610;42.628;23.378;2023-10-08T04:53:32;21.90;41.50
82039;DHT22;71610;42.628;23.378;2023-10-08T04:56:03;21.90;41.50
82039;DHT22;71610;42.628;23.378;2023-10-08T04:58:45;21.90;41.50
82039;DHT22;71610;42.628;23.378;2023-10-08T05:01:15;21.90;41.50
82039;DHT22;71610;42.628;23.378;2023-10-08T05:04:04;22.00;41.60
82039;DHT22;71610;42.628;23.378;2023-10-08T05:06:30;21.90;41.60
82039;DHT22;71610;42.628;23.378;2023-10-08T05:09:12;21.90;41.60
82039;DHT22;71610;42.628;23.378;2023-10-08T05:11:52;21.90;41.50
82039;DHT22;71610;42.628;23.378;2023-10-08T05:14:18;21.90;41.60
82039;DHT22;71610;42.628;23.378;2023-10-08T05:17:00;21.90;41.60
82039;DHT22;71610;42.628;23.378;2023-10-08T05:19:29;21.90;41.80
82039;DHT22;71610;42.628;23.378;2023-10-08T05:22:11;21.90;41.70
82039;DHT22;71610;42.628;23.378;2023-10-08T05:25:03;21.90;41.60
82039;DHT22;71610;42.628;23.378;2023-10-08T05:27:44;21.90;41.60
82039;DHT22;71610;42.628;23.378;2023-10-08T05:30:14;21.90;41.60
82039;DHT22;71610;42.628;23.378;2023-10-08T05:33:08;21.90;41.60
82039;DHT22;71610;42.628;23.378;2023-10-08T05:35:41;21.90;41.50
82039;DHT22;71610;42.628;23.378;2023-10-08T05:38:11;21.90;41.60
82039;DHT22;71610;42.628;23.378;2023-10-08T05:40:56;21.90;42.60
82039;DHT22;71610;42.628;23.378;2023-10-08T05:43:38;21.90;41.60
82039;DHT22;71610;42.628;23.378;2023-10-08T05:51:36;21.90;41.50
82039;DHT22;71610;42.628;23.378;2023-10-08T05:54:24;21.90;41.50
82039;DHT22;71610;42.628;23.378;2023-10-08T05:59:41;21.90;41.40
82039;DHT22;71610;42.628;23.378;2023-10-08T06:02:23;21.90;41.40
82039;DHT22;71610;42.628;23.378;2023-10-08T06:07:55;22.00;41.40
82039;DHT22;71610;42.628;23.378;2023-10-08T06:13:02;22.00;41.40
82039;DHT22;71610;42.628;23.378;2023-10-08T06:18:29;22.00;41.30
82039;DHT22;71610;42.628;23.378;2023-10-08T06:20:56;22.00;41.40
82039;DHT22;71610;42.628;23.378;2023-10-08T06:23:25;22.00;41.40
82039;DHT22;71610;42.628;23.378;2023-10-08T06:25:52;22.00;41.40
82039;DHT22;71610;42.628;23.378;2023-10-08T06:28:32;22.00;41.40
82039;DHT22;71610;42.628;23.378;2023-10-08T06:31:01;22.00;41.30
82039;DHT22;71610;42.628;23.378;2023-10-08T06:33:28;22.00;41.30
82039;DHT22;71610;42.628;23.378;2023-10-08T06:35:59;22.00;41.40
82039;DHT22;71610;42.628;23.378;2023-10-08T06:38:37;22.00;41.30
82039;DHT22;71610;42.628;23.378;2023-10-08T06:41:05;22.10;41.40
82039;DHT22;71610;42.628;23.378;2023-10-08T06:43:36;22.10;41.20
82039;DHT22;71610;42.628;23.378;2023-10-08T06:46:03;22.10;42.40
82039;DHT22;71610;42.628;23.378;2023-10-08T06:48:29;22.10;41.10
82039;DHT22;71610;42.628;23.378;2023-10-08T06:50:56;22.10;41.10
82039;DHT22;71610;42.628;23.378;2023-10-08T06:53:33;22.10;41.00
82039;DHT22;71610;42.628;23.378;2023-10-08T06:55:59;22.10;41.00
82039;DHT22;71610;42.628;23.378;2023-10-08T06:58:30;22.10;41.00
82039;DHT22;71610;42.628;23.378;2023-10-08T07:00:58;22.20;41.00
82039;DHT22;71610;42.628;23.378;2023-10-08T07:03:30;22.20;41.00
82039;DHT22;71610;42.628;23.378;2023-10-08T07:05:57;22.20;40.90
82039;DHT22;71610;42.628;23.378;2023-10-08T07:08:32;22.20;41.00
82039;DHT22;71610;42.628;23.378;2023-10-08T07:11:00;22.20;40.90
82039;DHT22;71610;42.628;23.378;2023-10-08T07:13:37;22.20;40.80
82039;DHT22;71610;42.628;23.378;2023-10-08T07:16:05;22.20;40.80
82039;DHT22;71610;42.628;23.378;2023-10-08T07:18:31;22.20;40.80
82039;DHT22;71610;42.628;23.378;2023-10-08T07:20:59;22.30;40.80
82039;DHT22;71610;42.628;23.378;2023-10-08T07:23:38;22.30;41.90
82039;DHT22;71610;42.628;23.378;2023-10-08T07:26:27;22.30;40.80
82039;DHT22;71610;42.628;23.378;2023-10-08T07:29:02;22.30;40.80
82039;DHT22;71610;42.628;23.378;2023-10-08T07:31:34;22.30;40.80
82039;DHT22;71610;42.628;23.378;2023-10-08T07:34:02;22.30;40.70
82039;DHT22;71610;42.628;23.378;2023-10-08T07:36:48;22.30;40.60
82039;DHT22;71610;42.628;23.378;2023-10-08T07:39:17;22.30;40.60
82039;DHT22;71610;42.628;23.378;2023-10-08T07:42:05;22.40;40.70
82039;DHT22;71610;42.628;23.378;2023-10-08T07:44:31;22.40;40.60
82039;DHT22;71610;42.628;23.378;2023-10-08T07:46:58;22.40;40.60
82039;DHT22;71610;42.628;23.378;2023-10-08T07:49:24;22.50;40.60
82039;DHT22;71610;42.628;23.378;2023-10-08T07:51:57;22.50;40.40
82039;DHT22;71610;42.628;23.378;2023-10-08T07:54:25;22.50;40.30
82039;DHT22;71610;42.628;23.378;2023-10-08T07:56:54;22.60;40.20
82039;DHT22;71610;42.628;23.378;2023-10-08T07:59:46;22.60;40.10
82039;DHT22;71610;42.628;23.378;2023-10-08T08:02:14;22.70;40.10
82039;DHT22;71610;42.628;23.378;2023-10-08T08:04:41;22.70;40.10
82039;DHT22;71610;42.628;23.378;2023-10-08T08:07:09;22.80;40.10
82039;DHT22;71610;42.628;23.378;2023-10-08T08:09:45;22.80;39.80
82039;DHT22;71610;42.628;23.378;2023-10-08T08:12:22;22.90;39.80
82039;DHT22;71610;42.628;23.378;2023-10-08T08:14:53;22.90;39.80
82039;DHT22;71610;42.628;23.378;2023-10-08T08:17:23;22.90;39.70
82039;DHT22;71610;42.628;23.378;2023-10-08T08:19:50;23.00;39.70
82039;DHT22;71610;42.628;23.378;2023-10-08T08:22:21;23.00;39.70
82039;DHT22;71610;42.628;23.378;2023-10-08T08:24:50;23.10;39.70
82039;DHT22;71610;42.628;23.378;2023-10-08T08:27:20;23.10;39.60
82039;DHT22;71610;42.628;23.378;2023-10-08T08:29:57;23.10;39.70
82039;DHT22;71610;42.628;23.378;2023-10-08T08:32:38;23.10;39.70
82039;DHT22;71610;42.628;23.378;2023-10-08T08:35:06;23.10;39.60
82039;DHT22;71610;42.628;23.378;2023-10-08T08:37:35;23.10;39.60
82039;DHT22;71610;42.628;23.378;2023-10-08T08:40:10;23.10;39.70
82039;DHT22;71610;42.628;23.378;2023-10-08T08:42:48;23.20;39.60
82039;DHT22;71610;42.628;23.378;2023-10-08T08:45:19;23.10;39.50
82039;DHT22;71610;42.628;23.378;2023-10-08T08:47:46;23.20;39.50
82039;DHT22;71610;42.628;23.378;2023-10-08T08:50:11;23.20;39.60
82039;DHT22;71610;42.628;23.378;2023-10-08T08:52:40;23.20;39.60
82039;DHT22;71610;42.628;23.378;2023-10-08T08:55:07;23.20;39.50
82039;DHT22;71610;42.628;23.378;2023-10-08T08:57:47;23.20;39.60
82039;DHT22;71610;42.628;23.378;2023-10-08T09:00:15;23.20;39.60
82039;DHT22;71610;42.628;23.378;2023-10-08T09:02:47;23.10;39.50
82039;DHT22;71610;42.628;23.378;2023-10-08T09:05:14;23.10;39.50
82039;DHT22;71610;42.628;23.378;2023-10-08T09:07:54;23.10;39.60
82039;DHT22;71610;42.628;23.378;2023-10-08T09:10:21;23.10;39.70
82039;DHT22;71610;42.628;23.378;2023-10-08T09:12:52;23.10;39.70
82039;DHT22;71610;42.628;23.378;2023-10-08T09:15:19;23.10;40.10
82039;DHT22;71610;42.628;23.378;2023-10-08T09:17:46;23.10;39.80
82039;DHT22;71610;42.628;23.378;2023-10-08T09:20:12;23.00;39.80
82039;DHT22;71610;42.628;23.378;2023-10-08T09:22:38;23.00;39.80
82039;DHT22;71610;42.628;23.378;2023-10-08T09:25:03;23.00;39.80
82039;DHT22;71610;42.628;23.378;2023-10-08T09:27:32;23.00;40.00
82039;DHT22;71610;42.628;23.378;2023-10-08T09:29:58;23.00;40.00
82039;DHT22;71610;42.628;23.378;2023-10-08T09:32:24;22.90;40.10
82039;DHT22;71610;42.628;23.378;2023-10-08T09:34:52;22.90;40.30
82039;DHT22;71610;42.628;23.378;2023-10-08T09:37:18;22.90;40.30
82039;DHT22;71610;42.628;23.378;2023-10-08T09:39:49;22.90;40.60
82039;DHT22;71610;42.628;23.378;2023-10-08T09:42:16;22.90;40.60
82039;DHT22;71610;42.628;23.378;2023-10-08T09:44:47;22.80;40.60
82039;DHT22;71610;42.628;23.378;2023-10-08T09:47:16;22.80;40.60
82039;DHT22;71610;42.628;23.378;2023-10-08T09:50:02;22.80;40.70
82039;DHT22;71610;42.628;23.378;2023-10-08T09:52:46;22.90;40.80
82039;DHT22;71610;42.628;23.378;2023-10-08T09:55:18;22.80;40.80
82039;DHT22;71610;42.628;23.378;2023-10-08T09:57:43;22.80;40.90
82039;DHT22;71610;42.628;23.378;2023-10-08T10:00:10;22.80;40.90
82039;DHT22;71610;42.628;23.378;2023-10-08T10:02:41;22.80;40.80
82039;DHT22;71610;42.628;23.378;2023-10-08T10:05:13;22.80;40.90
82039;DHT22;71610;42.628;23.378;2023-10-08T10:07:44;22.80;40.90
82039;DHT22;71610;42.628;23.378;2023-10-08T10:10:25;22.80;40.90
82039;DHT22;71610;42.628;23.378;2023-10-08T10:12:52;22.80;40.80
82039;DHT22;71610;42.628;23.378;2023-10-08T10:15:21;22.80;40.80
82039;DHT22;71610;42.628;23.378;2023-10-08T10:17:47;22.80;40.80
82039;DHT22;71610;42.628;23.378;2023-10-08T10:20:15;22.70;40.80
82039;DHT22;71610;42.628;23.378;2023-10-08T10:22:42;22.80;40.70
82039;DHT22;71610;42.628;23.378;2023-10-08T10:25:10;22.80;40.70
82039;DHT22;71610;42.628;23.378;2023-10-08T10:30:24;22.80;40.70
82039;DHT22;71610;42.628;23.378;2023-10-08T10:32:53;22.80;40.70
82039;DHT22;71610;42.628;23.378;2023-10-08T10:35:19;22.80;40.80
82039;DHT22;71610;42.628;23.378;2023-10-08T10:37:48;22.80;40.80
82039;DHT22;71610;42.628;23.378;2023-10-08T10:40:21;22.80;40.90
82039;DHT22;71610;42.628;23.378;2023-10-08T10:42:58;22.80;40.80
82039;DHT22;71610;42.628;23.378;2023-10-08T10:45:29;22.80;40.90
82039;DHT22;71610;42.628;23.378;2023-10-08T10:48:05;22.80;40.90
82039;DHT22;71610;42.628;23.378;2023-10-08T10:50:57;22.80;40.80
82039;DHT22;71610;42.628;23.378;2023-10-08T10:53:31;22.70;40.80
82039;DHT22;71610;42.628;23.378;2023-10-08T10:55:59;22.80;40.90
82039;DHT22;71610;42.628;23.378;2023-10-08T10:58:35;22.70;40.80
82039;DHT22;71610;42.628;23.378;2023-10-08T11:01:05;22.70;40.80
82039;DHT22;71610;42.628;23.378;2023-10-08T11:03:50;22.70;40.80
82039;DHT22;71610;42.628;23.378;2023-10-08T11:06:18;22.80;40.90
82039;DHT22;71610;42.628;23.378;2023-10-08T11:08:54;22.70;40.80
82039;DHT22;71610;42.628;23.378;2023-10-08T11:11:28;22.80;40.90
82039;DHT22;71610;42.628;23.378;2023-10-08T11:13:58;22.80;40.90
82039;DHT22;71610;42.628;23.378;2023-10-08T11:16:26;22.70;40.80
82039;DHT22;71610;42.628;23.378;2023-10-08T11:18:53;22.70;40.80
82039;DHT22;71610;42.628;23.378;2023-10-08T11:21:23;22.70;40.80
82039;DHT22;71610;42.628;23.378;2023-10-08T11:23:51;22.80;40.90
82039;DHT22;71610;42.628;23.378;2023-10-08T11:26:25;22.70;40.80
82039;DHT22;71610;42.628;23.378;2023-10-08T11:29:05;22.70;40.80
82039;DHT22;71610;42.628;23.378;2023-10-08T11:31:40;22.80;40.90
82039;DHT22;71610;42.628;23.378;2023-10-08T11:34:06;22.70;40.80
82039;DHT22;71610;42.628;23.378;2023-10-08T11:36:36;22.70;40.90
82039;DHT22;71610;42.628;23.378;2023-10-08T11:39:14;22.70;40.90
82039;DHT22;71610;42.628;23.378;2023-10-08T11:42:01;22.70;41.00
82039;DHT22;71610;42.628;23.378;2023-10-08T11:44:32;22.70;40.90
82039;DHT22;71610;42.628;23.378;2023-10-08T11:47:02;22.70;41.10
82039;DHT22;71610;42.628;23.378;2023-10-08T11:49:39;22.70;41.10
82039;DHT22;71610;42.628;23.378;2023-10-08T11:52:12;22.70;41.10
82039;DHT22;71610;42.628;23.378;2023-10-08T11:54:41;22.70;41.10
82039;DHT22;71610;42.628;23.378;2023-10-08T11:57:07;22.70;41.20
82039;DHT22;71610;42.628;23.378;2023-10-08T11:59:35;22.70;41.20
82039;DHT22;71610;42.628;23.378;2023-10-08T12:02:06;22.70;41.10
82039;DHT22;71610;42.628;23.378;2023-10-08T12:04:32;22.70;41.10
82039;DHT22;71610;42.628;23.378;2023-10-08T12:06:58;22.70;41.10
82039;DHT22;71610;42.628;23.378;2023-10-08T12:09:28;22.70;41.10
82039;DHT22;71610;42.628;23.378;2023-10-08T12:11:54;22.70;41.10
82039;DHT22;71610;42.628;23.378;2023-10-08T12:14:21;22.70;41.10
82039;DHT22;71610;42.628;23.378;2023-10-08T12:16:52;22.70;41.10
82039;DHT22;71610;42.628;23.378;2023-10-08T12:19:17;22.70;41.10
82039;DHT22;71610;42.628;23.378;2023-10-08T12:21:44;22.70;41.10
82039;DHT22;71610;42.628;23.378;2023-10-08T12:24:13;22.70;42.20
82039;DHT22;71610;42.628;23.378;2023-10-08T12:26:40;22.70;41.10
82039;DHT22;71610;42.628;23.378;2023-10-08T12:29:14;22.70;41.10
82039;DHT22;71610;42.628;23.378;2023-10-08T12:31:42;22.70;41.10
82039;DHT22;71610;42.628;23.378;2023-10-08T12:34:13;22.70;41.20
82039;DHT22;71610;42.628;23.378;2023-10-08T12:36:39;22.70;41.20
82039;DHT22;71610;42.628;23.378;2023-10-08T12:39:05;22.70;41.10
82039;DHT22;71610;42.628;23.378;2023-10-08T12:41:41;22.70;41.10
82039;DHT22;71610;42.628;23.378;2023-10-08T12:44:06;22.70;41.10
82039;DHT22;71610;42.628;23.378;2023-10-08T12:46:34;22.70;41.10
82039;DHT22;71610;42.628;23.378;2023-10-08T12:48:59;22.70;41.00
82039;DHT22;71610;42.628;23.378;2023-10-08T12:51:27;22.70;41.10
82039;DHT22;71610;42.628;23.378;2023-10-08T12:53:58;22.70;41.10
82039;DHT22;71610;42.628;23.378;2023-10-08T12:56:28;22.70;41.00
82039;DHT22;71610;42.628;23.378;2023-10-08T12:58:58;22.70;41.10
82039;DHT22;71610;42.628;23.378;2023-10-08T13:01:24;22.70;41.00
82039;DHT22;71610;42.628;23.378;2023-10-08T13:03:54;22.70;42.20
82039;DHT22;71610;42.628;23.378;2023-10-08T13:06:26;22.70;41.10
82039;DHT22;71610;42.628;23.378;2023-10-08T13:08:58;22.70;41.10
82039;DHT22;71610;42.628;23.378;2023-10-08T13:11:26;22.70;41.20
82039;DHT22;71610;42.628;23.378;2023-10-08T13:13:56;22.70;41.30
82039;DHT22;71610;42.628;23.378;2023-10-08T13:16:27;22.70;41.40
82039;DHT22;71610;42.628;23.378;2023-10-08T13:18:57;22.70;41.40
82039;DHT22;71610;42.628;23.378;2023-10-08T13:21:27;22.70;41.40
82039;DHT22;71610;42.628;23.378;2023-10-08T13:23:55;22.70;41.30
82039;DHT22;71610;42.628;23.378;2023-10-08T13:26:26;22.70;41.40
82039;DHT22;71610;42.628;23.378;2023-10-08T13:28:59;22.70;41.40
82039;DHT22;71610;42.628;23.378;2023-10-08T13:31:25;22.70;41.40
82039;DHT22;71610;42.628;23.378;2023-10-08T13:33:51;22.70;41.30
82039;DHT22;71610;42.628;23.378;2023-10-08T13:36:18;22.70;41.30
82039;DHT22;71610;42.628;23.378;2023-10-08T13:38:44;22.70;41.30
82039;DHT22;71610;42.628;23.378;2023-10-08T13:41:13;22.70;41.40
82039;DHT22;71610;42.628;23.378;2023-10-08T13:43:50;22.60;41.40
82039;DHT22;71610;42.628;23.378;2023-10-08T13:46:24;22.60;41.60
82039;DHT22;71610;42.628;23.378;2023-10-08T13:48:50;22.60;41.60
82039;DHT22;71610;42.628;23.378;2023-10-08T13:51:17;22.60;41.50
82039;DHT22;71610;42.628;23.378;2023-10-08T13:56:25;22.70;41.60
82039;DHT22;71610;42.628;23.378;2023-10-08T13:58:54;22.60;41.60
82039;DHT22;71610;42.628;23.378;2023-10-08T14:01:33;22.60;41.60
82039;DHT22;71610;42.628;23.378;2023-10-08T14:04:04;22.70;41.70
82039;DHT22;71610;42.628;23.378;2023-10-08T14:06:35;22.60;41.60
82039;DHT22;71610;42.628;23.378;2023-10-08T14:09:02;22.60;41.60
82039;DHT22;71610;42.628;23.378;2023-10-08T14:11:33;22.60;41.60
82039;DHT22;71610;42.628;23.378;2023-10-08T14:13:59;22.70;41.60
82039;DHT22;71610;42.628;23.378;2023-10-08T14:16:39;22.70;41.70
82039;DHT22;71610;42.628;23.378;2023-10-08T14:19:10;22.70;41.60
82039;DHT22;71610;42.628;23.378;2023-10-08T14:21:41;22.70;41.70
82039;DHT22;71610;42.628;23.378;2023-10-08T14:24:18;22.70;41.70
82039;DHT22;71610;42.628;23.378;2023-10-08T14:26:46;22.70;41.70
82039;DHT22;71610;42.628;23.378;2023-10-08T14:29:18;22.60;41.60
82039;DHT22;71610;42.628;23.378;2023-10-08T14:31:44;22.60;41.60
82039;DHT22;71610;42.628;23.378;2023-10-08T14:34:17;22.60;41.60
82039;DHT22;71610;42.628;23.378;2023-10-08T14:36:46;22.60;41.70
82039;DHT22;71610;42.628;23.378;2023-10-08T14:39:32;22.60;41.60
82039;DHT22;71610;42.628;23.378;2023-10-08T14:42:17;22.60;41.70
82039;DHT22;71610;42.628;23.378;2023-10-08T14:45:02;22.60;41.70
82039;DHT22;71610;42.628;23.378;2023-10-08T14:47:29;22.60;41.80
82039;DHT22;71610;42.628;23.378;2023-10-08T14:49:54;22.60;41.80
82039;DHT22;71610;42.628;23.378;2023-10-08T14:52:20;22.60;42.30
82039;DHT22;71610;42.628;23.378;2023-10-08T14:54:46;22.60;41.80
82039;DHT22;71610;42.628;23.378;2023-10-08T14:57:13;22.60;41.90
82039;DHT22;71610;42.628;23.378;2023-10-08T14:59:40;22.60;41.90
82039;DHT22;71610;42.628;23.378;2023-10-08T15:02:07;22.60;41.80
82039;DHT22;71610;42.628;23.378;2023-10-08T15:04:33;22.60;41.80
82039;DHT22;71610;42.628;23.378;2023-10-08T15:07:03;22.60;41.90
82039;DHT22;71610;42.628;23.378;2023-10-08T15:09:29;22.60;41.90
82039;DHT22;71610;42.628;23.378;2023-10-08T15:11:55;22.60;41.90
82039;DHT22;71610;42.628;23.378;2023-10-08T15:14:23;22.60;41.90
82039;DHT22;71610;42.628;23.378;2023-10-08T15:16:50;22.60;41.90
82039;DHT22;71610;42.628;23.378;2023-10-08T15:19:19;22.60;41.90
82039;DHT22;71610;42.628;23.378;2023-10-08T15:21:46;22.60;42.00
82039;DHT22;71610;42.628;23.378;2023-10-08T15:24:19;22.50;42.00
82039;DHT22;71610;42.628;23.378;2023-10-08T15:26:50;22.60;42.00
82039;DHT22;71610;42.628;23.378;2023-10-08T15:29:24;22.50;42.00
82039;DHT22;71610;42.628;23.378;2023-10-08T15:31:53;22.50;41.90
82039;DHT22;71610;42.628;23.378;2023-10-08T15:34:21;22.50;42.00
82039;DHT22;71610;42.628;23.378;2023-10-08T15:36:46;22.50;42.00
82039;DHT22;71610;42.628;23.378;2023-10-08T15:39:12;22.50;42.00
82039;DHT22;71610;42.628;23.378;2023-10-08T15:41:39;22.50;42.00
82039;DHT22;71610;42.628;23.378;2023-10-08T15:44:05;22.50;42.00
82039;DHT22;71610;42.628;23.378;2023-10-08T15:46:34;22.50;42.10
82039;DHT22;71610;42.628;23.378;2023-10-08T15:49:01;22.50;42.10
82039;DHT22;71610;42.628;23.378;2023-10-08T15:51:29;22.50;42.10
82039;DHT22;71610;42.628;23.378;2023-10-08T15:54:00;22.50;42.10
82039;DHT22;71610;42.628;23.378;2023-10-08T15:56:26;22.50;42.20
82039;DHT22;71610;42.628;23.378;2023-10-08T15:58:55;22.50;42.20
82039;DHT22;71610;42.628;23.378;2023-10-08T16:01:25;22.50;42.20
82039;DHT22;71610;42.628;23.378;2023-10-08T16:03:51;22.50;42.20